Nizhnevartovsk, Russia
Current Conditions -  °F | °C
As of 8:00 PM on Thursday 23 Oct 2014 (Local Time) from USNN Reporting Station
Clear Clear  
Wind Chill: -8°   Ceiling: Unl
Heat Index:   Visibility: 6mi
Dew Point:   Wind: 11mph
Humidity: 79%   Direction: 90°E
Pressure: 29.97"   Gusts: NA
Location:  60.93°N, 76.57°E
Report Text: USNN 231500Z 09005MPS CAVOK M14/M17 Q1015 NOSIG RMK QFE75803410165
Loading
Personal Weather Stations






























Interactive Weather Map
Tropical Storm Tracking
New forecast layout! Learn more

10-Day Weather Forecast

Advertisements
Track Severe Weather on mobile